sensor_id;sensor_type;location;lat;lon;timestamp;P1;durP1;ratioP1;P2;durP2;ratioP2
14704;SDS011;7442;50.840;3.396;2023-06-22T00:01:31;3.20;;;2.40;;
14704;SDS011;7442;50.840;3.396;2023-06-22T00:04:17;3.00;;;2.45;;
14704;SDS011;7442;50.840;3.396;2023-06-22T00:07:04;3.00;;;2.37;;
14704;SDS011;7442;50.840;3.396;2023-06-22T00:09:51;3.05;;;2.30;;
14704;SDS011;7442;50.840;3.396;2023-06-22T00:12:37;2.77;;;2.40;;
14704;SDS011;7442;50.840;3.396;2023-06-22T00:15:23;1.90;;;1.80;;
14704;SDS011;7442;50.840;3.396;2023-06-22T00:18:10;2.33;;;2.10;;
14704;SDS011;7442;50.840;3.396;2023-06-22T00:20:57;3.95;;;2.50;;
14704;SDS011;7442;50.840;3.396;2023-06-22T00:23:44;2.75;;;1.92;;
14704;SDS011;7442;50.840;3.396;2023-06-22T00:26:30;2.25;;;1.98;;
14704;SDS011;7442;50.840;3.396;2023-06-22T00:29:16;2.27;;;2.08;;
14704;SDS011;7442;50.840;3.396;2023-06-22T00:32:02;2.35;;;2.12;;
14704;SDS011;7442;50.840;3.396;2023-06-22T00:34:49;3.12;;;2.33;;
14704;SDS011;7442;50.840;3.396;2023-06-22T00:37:36;2.10;;;1.90;;
14704;SDS011;7442;50.840;3.396;2023-06-22T00:40:22;2.35;;;2.15;;
14704;SDS011;7442;50.840;3.396;2023-06-22T00:43:08;2.25;;;2.05;;
14704;SDS011;7442;50.840;3.396;2023-06-22T00:45:55;2.33;;;2.12;;
14704;SDS011;7442;50.840;3.396;2023-06-22T00:48:41;2.58;;;1.80;;
14704;SDS011;7442;50.840;3.396;2023-06-22T00:51:28;3.00;;;2.20;;
14704;SDS011;7442;50.840;3.396;2023-06-22T00:54:14;2.30;;;2.10;;
14704;SDS011;7442;50.840;3.396;2023-06-22T00:57:01;2.90;;;2.60;;
14704;SDS011;7442;50.840;3.396;2023-06-22T00:59:48;2.67;;;2.15;;
14704;SDS011;7442;50.840;3.396;2023-06-22T01:02:34;2.58;;;2.33;;
14704;SDS011;7442;50.840;3.396;2023-06-22T01:05:21;2.47;;;2.27;;
14704;SDS011;7442;50.840;3.396;2023-06-22T01:08:14;3.08;;;2.10;;
14704;SDS011;7442;50.840;3.396;2023-06-22T01:14:06;3.20;;;2.47;;
14704;SDS011;7442;50.840;3.396;2023-06-22T01:16:53;2.45;;;2.12;;
14704;SDS011;7442;50.840;3.396;2023-06-22T01:19:45;2.42;;;2.08;;
14704;SDS011;7442;50.840;3.396;2023-06-22T01:22:38;2.20;;;2.00;;
14704;SDS011;7442;50.840;3.396;2023-06-22T01:25:31;1.95;;;1.82;;
14704;SDS011;7442;50.840;3.396;2023-06-22T01:28:30;2.70;;;2.20;;
14704;SDS011;7442;50.840;3.396;2023-06-22T01:31:21;2.22;;;2.02;;
14704;SDS011;7442;50.840;3.396;2023-06-22T01:34:07;3.15;;;2.37;;
14704;SDS011;7442;50.840;3.396;2023-06-22T01:36:54;2.00;;;1.90;;
14704;SDS011;7442;50.840;3.396;2023-06-22T01:39:43;2.30;;;2.10;;
14704;SDS011;7442;50.840;3.396;2023-06-22T01:42:30;2.30;;;2.08;;
14704;SDS011;7442;50.840;3.396;2023-06-22T01:45:17;2.67;;;2.25;;
14704;SDS011;7442;50.840;3.396;2023-06-22T01:48:04;2.25;;;2.05;;
14704;SDS011;7442;50.840;3.396;2023-06-22T01:50:51;2.37;;;2.17;;
14704;SDS011;7442;50.840;3.396;2023-06-22T01:53:38;4.70;;;2.40;;
14704;SDS011;7442;50.840;3.396;2023-06-22T01:56:25;2.35;;;1.90;;
14704;SDS011;7442;50.840;3.396;2023-06-22T01:59:14;2.25;;;2.05;;
14704;SDS011;7442;50.840;3.396;2023-06-22T02:02:02;2.20;;;2.00;;
14704;SDS011;7442;50.840;3.396;2023-06-22T02:04:57;2.20;;;2.00;;
14704;SDS011;7442;50.840;3.396;2023-06-22T02:08:02;2.92;;;2.22;;
14704;SDS011;7442;50.840;3.396;2023-06-22T02:10:50;2.45;;;2.10;;
14704;SDS011;7442;50.840;3.396;2023-06-22T02:13:38;2.72;;;2.10;;
14704;SDS011;7442;50.840;3.396;2023-06-22T02:16:26;2.27;;;2.08;;
14704;SDS011;7442;50.840;3.396;2023-06-22T02:19:16;3.27;;;2.10;;
14704;SDS011;7442;50.840;3.396;2023-06-22T02:22:04;2.40;;;2.20;;
14704;SDS011;7442;50.840;3.396;2023-06-22T02:24:50;2.27;;;2.08;;
14704;SDS011;7442;50.840;3.396;2023-06-22T02:27:37;2.40;;;2.15;;
14704;SDS011;7442;50.840;3.396;2023-06-22T02:30:24;2.37;;;2.17;;
14704;SDS011;7442;50.840;3.396;2023-06-22T02:33:11;2.27;;;2.08;;
14704;SDS011;7442;50.840;3.396;2023-06-22T02:35:57;2.75;;;2.08;;
14704;SDS011;7442;50.840;3.396;2023-06-22T02:38:43;2.30;;;2.10;;
14704;SDS011;7442;50.840;3.396;2023-06-22T02:41:30;2.40;;;2.20;;
14704;SDS011;7442;50.840;3.396;2023-06-22T02:44:16;2.40;;;2.20;;
14704;SDS011;7442;50.840;3.396;2023-06-22T02:47:03;2.25;;;2.00;;
14704;SDS011;7442;50.840;3.396;2023-06-22T02:49:49;2.92;;;2.30;;
14704;SDS011;7442;50.840;3.396;2023-06-22T02:52:36;2.20;;;2.00;;
14704;SDS011;7442;50.840;3.396;2023-06-22T02:55:23;2.67;;;2.02;;
14704;SDS011;7442;50.840;3.396;2023-06-22T02:58:10;3.37;;;2.25;;
14704;SDS011;7442;50.840;3.396;2023-06-22T03:00:56;3.15;;;2.22;;
14704;SDS011;7442;50.840;3.396;2023-06-22T03:03:44;2.37;;;2.10;;
14704;SDS011;7442;50.840;3.396;2023-06-22T03:06:30;2.55;;;1.90;;
14704;SDS011;7442;50.840;3.396;2023-06-22T03:09:17;2.22;;;1.90;;
14704;SDS011;7442;50.840;3.396;2023-06-22T03:12:03;2.90;;;2.30;;
14704;SDS011;7442;50.840;3.396;2023-06-22T03:14:49;2.33;;;2.12;;
14704;SDS011;7442;50.840;3.396;2023-06-22T03:17:35;2.20;;;2.00;;
14704;SDS011;7442;50.840;3.396;2023-06-22T03:20:24;3.92;;;2.15;;
14704;SDS011;7442;50.840;3.396;2023-06-22T03:23:12;2.25;;;1.87;;
14704;SDS011;7442;50.840;3.396;2023-06-22T03:25:58;2.30;;;2.10;;
14704;SDS011;7442;50.840;3.396;2023-06-22T03:28:44;2.20;;;2.00;;
14704;SDS011;7442;50.840;3.396;2023-06-22T03:31:31;2.70;;;2.33;;
14704;SDS011;7442;50.840;3.396;2023-06-22T03:34:17;2.47;;;2.15;;
14704;SDS011;7442;50.840;3.396;2023-06-22T03:37:04;3.08;;;1.77;;
14704;SDS011;7442;50.840;3.396;2023-06-22T03:39:50;2.27;;;2.08;;
14704;SDS011;7442;50.840;3.396;2023-06-22T03:42:36;2.72;;;1.82;;
14704;SDS011;7442;50.840;3.396;2023-06-22T03:45:23;3.02;;;2.22;;
14704;SDS011;7442;50.840;3.396;2023-06-22T03:48:09;2.95;;;2.30;;
14704;SDS011;7442;50.840;3.396;2023-06-22T03:50:56;2.15;;;1.90;;
14704;SDS011;7442;50.840;3.396;2023-06-22T03:53:44;4.65;;;2.45;;
14704;SDS011;7442;50.840;3.396;2023-06-22T03:56:31;2.52;;;1.92;;
14704;SDS011;7442;50.840;3.396;2023-06-22T03:59:17;4.47;;;2.17;;
14704;SDS011;7442;50.840;3.396;2023-06-22T04:02:04;2.45;;;2.10;;
14704;SDS011;7442;50.840;3.396;2023-06-22T04:04:50;2.45;;;2.20;;
14704;SDS011;7442;50.840;3.396;2023-06-22T04:07:37;1.82;;;1.72;;
14704;SDS011;7442;50.840;3.396;2023-06-22T04:10:23;2.10;;;1.90;;
14704;SDS011;7442;50.840;3.396;2023-06-22T04:13:10;2.50;;;2.20;;
14704;SDS011;7442;50.840;3.396;2023-06-22T04:15:56;3.50;;;2.00;;
14704;SDS011;7442;50.840;3.396;2023-06-22T04:18:43;2.95;;;2.08;;
14704;SDS011;7442;50.840;3.396;2023-06-22T04:21:29;2.58;;;1.87;;
14704;SDS011;7442;50.840;3.396;2023-06-22T04:24:15;3.22;;;2.45;;
14704;SDS011;7442;50.840;3.396;2023-06-22T04:27:01;2.45;;;1.90;;
14704;SDS011;7442;50.840;3.396;2023-06-22T04:29:48;2.55;;;2.33;;
14704;SDS011;7442;50.840;3.396;2023-06-22T04:32:35;1.92;;;1.72;;
14704;SDS011;7442;50.840;3.396;2023-06-22T04:35:22;3.52;;;2.27;;
14704;SDS011;7442;50.840;3.396;2023-06-22T04:38:09;2.85;;;2.30;;
14704;SDS011;7442;50.840;3.396;2023-06-22T04:40:57;2.20;;;2.00;;
14704;SDS011;7442;50.840;3.396;2023-06-22T04:43:46;2.10;;;2.00;;
14704;SDS011;7442;50.840;3.396;2023-06-22T04:46:34;2.17;;;1.98;;
14704;SDS011;7442;50.840;3.396;2023-06-22T04:49:24;3.17;;;2.17;;
14704;SDS011;7442;50.840;3.396;2023-06-22T04:52:12;4.03;;;1.85;;
14704;SDS011;7442;50.840;3.396;2023-06-22T04:55:01;2.98;;;2.00;;
14704;SDS011;7442;50.840;3.396;2023-06-22T04:57:48;2.10;;;1.90;;
14704;SDS011;7442;50.840;3.396;2023-06-22T05:00:35;2.50;;;1.90;;
14704;SDS011;7442;50.840;3.396;2023-06-22T05:03:21;3.30;;;2.08;;
14704;SDS011;7442;50.840;3.396;2023-06-22T05:06:09;2.05;;;1.90;;
14704;SDS011;7442;50.840;3.396;2023-06-22T05:08:56;2.95;;;2.25;;
14704;SDS011;7442;50.840;3.396;2023-06-22T05:11:45;3.62;;;2.12;;
14704;SDS011;7442;50.840;3.396;2023-06-22T05:14:32;2.60;;;2.05;;
14704;SDS011;7442;50.840;3.396;2023-06-22T05:17:18;2.08;;;1.80;;
14704;SDS011;7442;50.840;3.396;2023-06-22T05:20:05;2.58;;;2.10;;
14704;SDS011;7442;50.840;3.396;2023-06-22T05:22:52;2.30;;;2.08;;
14704;SDS011;7442;50.840;3.396;2023-06-22T05:25:38;2.02;;;1.82;;
14704;SDS011;7442;50.840;3.396;2023-06-22T05:28:24;2.62;;;2.00;;
14704;SDS011;7442;50.840;3.396;2023-06-22T05:31:10;2.30;;;1.90;;
14704;SDS011;7442;50.840;3.396;2023-06-22T05:34:00;2.22;;;2.05;;
14704;SDS011;7442;50.840;3.396;2023-06-22T05:36:46;2.10;;;1.90;;
14704;SDS011;7442;50.840;3.396;2023-06-22T05:39:33;2.75;;;1.92;;
14704;SDS011;7442;50.840;3.396;2023-06-22T05:42:21;8.28;;;6.40;;
14704;SDS011;7442;50.840;3.396;2023-06-22T05:45:07;5.15;;;4.55;;
14704;SDS011;7442;50.840;3.396;2023-06-22T05:47:53;5.78;;;4.05;;
14704;SDS011;7442;50.840;3.396;2023-06-22T05:50:40;5.92;;;3.50;;
14704;SDS011;7442;50.840;3.396;2023-06-22T05:53:26;5.75;;;3.60;;
14704;SDS011;7442;50.840;3.396;2023-06-22T05:56:13;4.28;;;3.20;;
14704;SDS011;7442;50.840;3.396;2023-06-22T05:58:59;3.65;;;3.33;;
14704;SDS011;7442;50.840;3.396;2023-06-22T06:01:46;5.17;;;3.52;;
14704;SDS011;7442;50.840;3.396;2023-06-22T06:04:34;5.05;;;3.72;;
14704;SDS011;7442;50.840;3.396;2023-06-22T06:07:20;5.75;;;3.37;;
14704;SDS011;7442;50.840;3.396;2023-06-22T06:10:08;4.58;;;3.42;;
14704;SDS011;7442;50.840;3.396;2023-06-22T06:12:55;6.03;;;4.08;;
14704;SDS011;7442;50.840;3.396;2023-06-22T06:15:41;7.78;;;3.85;;
14704;SDS011;7442;50.840;3.396;2023-06-22T06:18:28;6.53;;;3.90;;
14704;SDS011;7442;50.840;3.396;2023-06-22T06:21:14;4.97;;;3.83;;
14704;SDS011;7442;50.840;3.396;2023-06-22T06:24:02;6.15;;;3.70;;
14704;SDS011;7442;50.840;3.396;2023-06-22T06:26:49;6.05;;;3.52;;
14704;SDS011;7442;50.840;3.396;2023-06-22T06:29:35;5.20;;;3.70;;
14704;SDS011;7442;50.840;3.396;2023-06-22T06:32:22;5.45;;;3.40;;
14704;SDS011;7442;50.840;3.396;2023-06-22T06:35:09;8.60;;;3.80;;
14704;SDS011;7442;50.840;3.396;2023-06-22T06:37:56;5.08;;;3.70;;
14704;SDS011;7442;50.840;3.396;2023-06-22T06:40:42;5.47;;;3.87;;
14704;SDS011;7442;50.840;3.396;2023-06-22T06:43:30;4.05;;;3.55;;
14704;SDS011;7442;50.840;3.396;2023-06-22T06:46:16;11.78;;;8.30;;
14704;SDS011;7442;50.840;3.396;2023-06-22T06:49:03;10.85;;;8.10;;
14704;SDS011;7442;50.840;3.396;2023-06-22T06:51:50;11.75;;;8.00;;
14704;SDS011;7442;50.840;3.396;2023-06-22T06:54:37;10.93;;;8.03;;
14704;SDS011;7442;50.840;3.396;2023-06-22T06:57:23;10.45;;;8.35;;
14704;SDS011;7442;50.840;3.396;2023-06-22T07:00:11;12.60;;;8.75;;
14704;SDS011;7442;50.840;3.396;2023-06-22T07:02:58;18.65;;;9.35;;
14704;SDS011;7442;50.840;3.396;2023-06-22T07:05:44;14.18;;;8.23;;
14704;SDS011;7442;50.840;3.396;2023-06-22T07:08:31;14.10;;;9.30;;
14704;SDS011;7442;50.840;3.396;2023-06-22T07:11:17;11.30;;;8.35;;
14704;SDS011;7442;50.840;3.396;2023-06-22T07:14:03;13.45;;;9.68;;
14704;SDS011;7442;50.840;3.396;2023-06-22T07:16:50;14.05;;;9.40;;
14704;SDS011;7442;50.840;3.396;2023-06-22T07:19:36;13.85;;;9.53;;
14704;SDS011;7442;50.840;3.396;2023-06-22T07:22:22;13.22;;;10.38;;
14704;SDS011;7442;50.840;3.396;2023-06-22T07:25:09;12.73;;;9.93;;
14704;SDS011;7442;50.840;3.396;2023-06-22T07:27:58;14.05;;;10.15;;
14704;SDS011;7442;50.840;3.396;2023-06-22T07:30:46;14.07;;;11.25;;
14704;SDS011;7442;50.840;3.396;2023-06-22T07:33:39;14.63;;;10.65;;
14704;SDS011;7442;50.840;3.396;2023-06-22T07:36:25;13.85;;;10.53;;
14704;SDS011;7442;50.840;3.396;2023-06-22T07:39:13;14.78;;;10.82;;
14704;SDS011;7442;50.840;3.396;2023-06-22T07:41:59;14.45;;;11.60;;
14704;SDS011;7442;50.840;3.396;2023-06-22T07:44:45;16.12;;;10.60;;
14704;SDS011;7442;50.840;3.396;2023-06-22T07:47:32;13.18;;;10.60;;
14704;SDS011;7442;50.840;3.396;2023-06-22T07:50:01;18.10;;;11.53;;
14704;SDS011;7442;50.840;3.396;2023-06-22T07:52:48;16.62;;;9.70;;
14704;SDS011;7442;50.840;3.396;2023-06-22T07:55:36;14.18;;;9.43;;
14704;SDS011;7442;50.840;3.396;2023-06-22T07:58:22;16.45;;;10.35;;
14704;SDS011;7442;50.840;3.396;2023-06-22T08:01:09;16.02;;;9.75;;
14704;SDS011;7442;50.840;3.396;2023-06-22T08:03:56;15.00;;;9.68;;
14704;SDS011;7442;50.840;3.396;2023-06-22T08:06:42;14.45;;;9.80;;
14704;SDS011;7442;50.840;3.396;2023-06-22T08:09:30;16.32;;;9.75;;
14704;SDS011;7442;50.840;3.396;2023-06-22T08:12:18;14.55;;;10.20;;
14704;SDS011;7442;50.840;3.396;2023-06-22T08:15:05;15.83;;;10.65;;
14704;SDS011;7442;50.840;3.396;2023-06-22T08:17:52;14.80;;;10.48;;
14704;SDS011;7442;50.840;3.396;2023-06-22T08:20:38;12.68;;;8.98;;
14704;SDS011;7442;50.840;3.396;2023-06-22T08:23:24;15.18;;;10.15;;
14704;SDS011;7442;50.840;3.396;2023-06-22T08:26:11;16.82;;;10.28;;
14704;SDS011;7442;50.840;3.396;2023-06-22T08:28:57;12.25;;;10.35;;
14704;SDS011;7442;50.840;3.396;2023-06-22T08:31:43;19.12;;;12.03;;
14704;SDS011;7442;50.840;3.396;2023-06-22T08:37:35;14.30;;;12.00;;
14704;SDS011;7442;50.840;3.396;2023-06-22T08:40:23;18.60;;;11.53;;
14704;SDS011;7442;50.840;3.396;2023-06-22T08:43:14;19.77;;;11.50;;
14704;SDS011;7442;50.840;3.396;2023-06-22T08:46:01;13.62;;;11.57;;
14704;SDS011;7442;50.840;3.396;2023-06-22T08:48:47;18.85;;;14.05;;
14704;SDS011;7442;50.840;3.396;2023-06-22T08:51:35;17.90;;;11.18;;
14704;SDS011;7442;50.840;3.396;2023-06-22T08:54:21;14.83;;;11.97;;
14704;SDS011;7442;50.840;3.396;2023-06-22T08:57:08;13.68;;;11.40;;
14704;SDS011;7442;50.840;3.396;2023-06-22T08:59:54;18.25;;;12.13;;
14704;SDS011;7442;50.840;3.396;2023-06-22T09:02:43;19.42;;;13.30;;
14704;SDS011;7442;50.840;3.396;2023-06-22T09:05:29;26.40;;;14.10;;
14704;SDS011;7442;50.840;3.396;2023-06-22T09:08:16;18.65;;;13.83;;
14704;SDS011;7442;50.840;3.396;2023-06-22T09:11:02;17.98;;;14.38;;
14704;SDS011;7442;50.840;3.396;2023-06-22T09:13:49;22.73;;;13.85;;
14704;SDS011;7442;50.840;3.396;2023-06-22T09:16:36;21.30;;;13.85;;
14704;SDS011;7442;50.840;3.396;2023-06-22T09:19:22;26.65;;;14.85;;
14704;SDS011;7442;50.840;3.396;2023-06-22T09:22:08;25.30;;;15.23;;
14704;SDS011;7442;50.840;3.396;2023-06-22T09:24:55;20.90;;;15.00;;
14704;SDS011;7442;50.840;3.396;2023-06-22T09:27:41;20.80;;;14.43;;
14704;SDS011;7442;50.840;3.396;2023-06-22T09:30:27;24.43;;;14.45;;
14704;SDS011;7442;50.840;3.396;2023-06-22T09:33:14;21.07;;;16.12;;
14704;SDS011;7442;50.840;3.396;2023-06-22T09:38:23;24.25;;;18.07;;
14704;SDS011;7442;50.840;3.396;2023-06-22T09:41:09;23.85;;;18.12;;
14704;SDS011;7442;50.840;3.396;2023-06-22T09:43:55;23.75;;;16.93;;
14704;SDS011;7442;50.840;3.396;2023-06-22T09:46:32;23.70;;;14.28;;
14704;SDS011;7442;50.840;3.396;2023-06-22T09:49:19;31.73;;;18.80;;
14704;SDS011;7442;50.840;3.396;2023-06-22T09:52:06;28.60;;;18.65;;
14704;SDS011;7442;50.840;3.396;2023-06-22T09:54:52;28.73;;;19.12;;
14704;SDS011;7442;50.840;3.396;2023-06-22T09:57:40;24.47;;;18.55;;
14704;SDS011;7442;50.840;3.396;2023-06-22T10:00:26;24.25;;;17.57;;
14704;SDS011;7442;50.840;3.396;2023-06-22T10:03:12;23.90;;;18.77;;
14704;SDS011;7442;50.840;3.396;2023-06-22T10:05:59;26.05;;;17.60;;
14704;SDS011;7442;50.840;3.396;2023-06-22T10:08:45;24.85;;;18.45;;
14704;SDS011;7442;50.840;3.396;2023-06-22T10:11:33;23.65;;;17.70;;
14704;SDS011;7442;50.840;3.396;2023-06-22T10:14:20;21.80;;;17.48;;
14704;SDS011;7442;50.840;3.396;2023-06-22T10:17:06;24.75;;;17.73;;
14704;SDS011;7442;50.840;3.396;2023-06-22T10:19:52;22.15;;;17.82;;
14704;SDS011;7442;50.840;3.396;2023-06-22T10:22:40;20.95;;;17.60;;
14704;SDS011;7442;50.840;3.396;2023-06-22T10:25:28;21.80;;;17.45;;
14704;SDS011;7442;50.840;3.396;2023-06-22T10:28:14;24.12;;;17.57;;
14704;SDS011;7442;50.840;3.396;2023-06-22T10:31:01;23.75;;;18.60;;
14704;SDS011;7442;50.840;3.396;2023-06-22T10:33:47;21.20;;;18.42;;
14704;SDS011;7442;50.840;3.396;2023-06-22T10:36:34;20.08;;;17.17;;
14704;SDS011;7442;50.840;3.396;2023-06-22T10:39:20;19.82;;;17.73;;
14704;SDS011;7442;50.840;3.396;2023-06-22T10:42:06;22.17;;;18.77;;
14704;SDS011;7442;50.840;3.396;2023-06-22T10:44:52;23.47;;;18.17;;
14704;SDS011;7442;50.840;3.396;2023-06-22T10:47:39;23.65;;;18.07;;
14704;SDS011;7442;50.840;3.396;2023-06-22T10:50:27;22.85;;;18.23;;
14704;SDS011;7442;50.840;3.396;2023-06-22T10:53:13;23.07;;;18.27;;
14704;SDS011;7442;50.840;3.396;2023-06-22T10:56:00;23.80;;;18.45;;
14704;SDS011;7442;50.840;3.396;2023-06-22T10:58:46;21.62;;;18.82;;
14704;SDS011;7442;50.840;3.396;2023-06-22T11:01:32;23.92;;;19.15;;
14704;SDS011;7442;50.840;3.396;2023-06-22T11:04:19;23.25;;;17.70;;
14704;SDS011;7442;50.840;3.396;2023-06-22T11:07:05;22.62;;;17.77;;
14704;SDS011;7442;50.840;3.396;2023-06-22T11:09:52;19.75;;;17.05;;
14704;SDS011;7442;50.840;3.396;2023-06-22T11:12:38;21.27;;;15.93;;
14704;SDS011;7442;50.840;3.396;2023-06-22T11:15:24;17.27;;;15.48;;
14704;SDS011;7442;50.840;3.396;2023-06-22T11:17:55;18.73;;;14.70;;
14704;SDS011;7442;50.840;3.396;2023-06-22T11:20:42;14.03;;;12.47;;
14704;SDS011;7442;50.840;3.396;2023-06-22T11:23:28;18.05;;;12.75;;
14704;SDS011;7442;50.840;3.396;2023-06-22T11:26:14;16.20;;;11.45;;
14704;SDS011;7442;50.840;3.396;2023-06-22T11:29:00;16.05;;;11.40;;
14704;SDS011;7442;50.840;3.396;2023-06-22T11:31:49;14.65;;;11.40;;
14704;SDS011;7442;50.840;3.396;2023-06-22T11:34:35;13.70;;;11.20;;
14704;SDS011;7442;50.840;3.396;2023-06-22T11:37:21;18.87;;;11.15;;
14704;SDS011;7442;50.840;3.396;2023-06-22T11:40:07;13.58;;;11.20;;
14704;SDS011;7442;50.840;3.396;2023-06-22T11:42:54;17.65;;;11.22;;
14704;SDS011;7442;50.840;3.396;2023-06-22T11:45:40;16.00;;;12.13;;
14704;SDS011;7442;50.840;3.396;2023-06-22T11:48:26;17.17;;;12.18;;
14704;SDS011;7442;50.840;3.396;2023-06-22T11:51:12;16.57;;;12.40;;
14704;SDS011;7442;50.840;3.396;2023-06-22T11:53:58;19.45;;;12.73;;
14704;SDS011;7442;50.840;3.396;2023-06-22T11:56:45;16.95;;;12.33;;
14704;SDS011;7442;50.840;3.396;2023-06-22T11:59:31;16.02;;;13.50;;
14704;SDS011;7442;50.840;3.396;2023-06-22T12:02:17;17.62;;;12.20;;
14704;SDS011;7442;50.840;3.396;2023-06-22T12:05:03;17.48;;;12.65;;
14704;SDS011;7442;50.840;3.396;2023-06-22T12:07:55;15.88;;;12.03;;
14704;SDS011;7442;50.840;3.396;2023-06-22T12:10:44;16.87;;;11.93;;
14704;SDS011;7442;50.840;3.396;2023-06-22T12:13:30;16.17;;;11.48;;
14704;SDS011;7442;50.840;3.396;2023-06-22T12:16:16;14.90;;;10.90;;
14704;SDS011;7442;50.840;3.396;2023-06-22T12:19:03;12.85;;;11.25;;
14704;SDS011;7442;50.840;3.396;2023-06-22T12:21:49;14.03;;;11.65;;
14704;SDS011;7442;50.840;3.396;2023-06-22T12:24:36;14.07;;;10.93;;
14704;SDS011;7442;50.840;3.396;2023-06-22T12:27:22;14.05;;;11.97;;
14704;SDS011;7442;50.840;3.396;2023-06-22T12:30:08;13.32;;;11.22;;
14704;SDS011;7442;50.840;3.396;2023-06-22T12:32:55;18.42;;;12.43;;
14704;SDS011;7442;50.840;3.396;2023-06-22T12:35:41;17.62;;;12.73;;
14704;SDS011;7442;50.840;3.396;2023-06-22T12:38:27;15.75;;;12.50;;
14704;SDS011;7442;50.840;3.396;2023-06-22T12:41:14;17.80;;;13.55;;
14704;SDS011;7442;50.840;3.396;2023-06-22T12:44:00;17.73;;;13.13;;
14704;SDS011;7442;50.840;3.396;2023-06-22T12:46:47;17.30;;;13.22;;
14704;SDS011;7442;50.840;3.396;2023-06-22T12:49:34;15.38;;;12.65;;
14704;SDS011;7442;50.840;3.396;2023-06-22T12:52:21;15.88;;;12.15;;
14704;SDS011;7442;50.840;3.396;2023-06-22T12:55:07;13.53;;;10.78;;
14704;SDS011;7442;50.840;3.396;2023-06-22T12:57:53;14.65;;;10.90;;
14704;SDS011;7442;50.840;3.396;2023-06-22T13:00:39;13.38;;;10.65;;
14704;SDS011;7442;50.840;3.396;2023-06-22T13:03:26;11.00;;;9.63;;
14704;SDS011;7442;50.840;3.396;2023-06-22T13:06:12;12.35;;;10.20;;
14704;SDS011;7442;50.840;3.396;2023-06-22T13:08:58;17.07;;;11.05;;
14704;SDS011;7442;50.840;3.396;2023-06-22T13:11:45;12.73;;;9.93;;
14704;SDS011;7442;50.840;3.396;2023-06-22T13:14:31;12.80;;;10.93;;
14704;SDS011;7442;50.840;3.396;2023-06-22T13:17:18;11.93;;;9.83;;
14704;SDS011;7442;50.840;3.396;2023-06-22T13:20:04;13.20;;;9.95;;
14704;SDS011;7442;50.840;3.396;2023-06-22T13:22:51;15.03;;;10.13;;
14704;SDS011;7442;50.840;3.396;2023-06-22T13:25:38;12.18;;;9.78;;
14704;SDS011;7442;50.840;3.396;2023-06-22T13:28:25;14.07;;;10.65;;
14704;SDS011;7442;50.840;3.396;2023-06-22T13:31:11;12.47;;;9.23;;
14704;SDS011;7442;50.840;3.396;2023-06-22T13:33:57;22.60;;;10.98;;
14704;SDS011;7442;50.840;3.396;2023-06-22T13:36:44;13.65;;;9.63;;
14704;SDS011;7442;50.840;3.396;2023-06-22T13:39:30;12.85;;;8.90;;
14704;SDS011;7442;50.840;3.396;2023-06-22T13:42:17;12.90;;;9.40;;
14704;SDS011;7442;50.840;3.396;2023-06-22T13:45:04;11.50;;;9.03;;
14704;SDS011;7442;50.840;3.396;2023-06-22T13:47:51;13.55;;;8.50;;
14704;SDS011;7442;50.840;3.396;2023-06-22T13:50:37;10.30;;;7.78;;
14704;SDS011;7442;50.840;3.396;2023-06-22T13:53:24;10.85;;;9.10;;
14704;SDS011;7442;50.840;3.396;2023-06-22T13:56:10;11.95;;;8.63;;
14704;SDS011;7442;50.840;3.396;2023-06-22T13:58:56;13.10;;;9.45;;
14704;SDS011;7442;50.840;3.396;2023-06-22T14:01:43;12.43;;;10.80;;
14704;SDS011;7442;50.840;3.396;2023-06-22T14:04:29;14.03;;;10.65;;
14704;SDS011;7442;50.840;3.396;2023-06-22T14:07:16;13.53;;;10.70;;
14704;SDS011;7442;50.840;3.396;2023-06-22T14:10:04;15.20;;;10.72;;
14704;SDS011;7442;50.840;3.396;2023-06-22T14:12:50;14.07;;;10.35;;
14704;SDS011;7442;50.840;3.396;2023-06-22T14:15:37;15.85;;;9.70;;
14704;SDS011;7442;50.840;3.396;2023-06-22T14:18:23;13.13;;;10.55;;
14704;SDS011;7442;50.840;3.396;2023-06-22T14:21:09;15.68;;;10.60;;
14704;SDS011;7442;50.840;3.396;2023-06-22T14:23:56;14.53;;;10.90;;
14704;SDS011;7442;50.840;3.396;2023-06-22T14:26:42;15.20;;;11.22;;
14704;SDS011;7442;50.840;3.396;2023-06-22T14:29:28;12.10;;;10.63;;
14704;SDS011;7442;50.840;3.396;2023-06-22T14:32:14;12.65;;;10.00;;
14704;SDS011;7442;50.840;3.396;2023-06-22T14:35:01;13.58;;;10.15;;
14704;SDS011;7442;50.840;3.396;2023-06-22T14:37:47;14.45;;;11.38;;
14704;SDS011;7442;50.840;3.396;2023-06-22T14:40:33;15.55;;;10.38;;
14704;SDS011;7442;50.840;3.396;2023-06-22T14:43:20;15.72;;;10.75;;
14704;SDS011;7442;50.840;3.396;2023-06-22T14:46:06;14.10;;;9.83;;
14704;SDS011;7442;50.840;3.396;2023-06-22T14:48:52;13.20;;;11.28;;
14704;SDS011;7442;50.840;3.396;2023-06-22T14:51:39;18.62;;;12.90;;
14704;SDS011;7442;50.840;3.396;2023-06-22T14:54:25;17.32;;;12.95;;
14704;SDS011;7442;50.840;3.396;2023-06-22T14:57:12;15.85;;;12.98;;
14704;SDS011;7442;50.840;3.396;2023-06-22T14:59:59;16.23;;;13.18;;
14704;SDS011;7442;50.840;3.396;2023-06-22T15:02:48;16.27;;;12.53;;
14704;SDS011;7442;50.840;3.396;2023-06-22T15:05:36;15.90;;;12.53;;
14704;SDS011;7442;50.840;3.396;2023-06-22T15:08:22;15.10;;;12.90;;
14704;SDS011;7442;50.840;3.396;2023-06-22T15:11:11;14.75;;;11.90;;
14704;SDS011;7442;50.840;3.396;2023-06-22T15:14:00;17.57;;;11.93;;
14704;SDS011;7442;50.840;3.396;2023-06-22T15:16:47;12.65;;;10.30;;
14704;SDS011;7442;50.840;3.396;2023-06-22T15:19:33;13.78;;;10.15;;
14704;SDS011;7442;50.840;3.396;2023-06-22T15:22:22;13.45;;;10.32;;
14704;SDS011;7442;50.840;3.396;2023-06-22T15:25:10;12.70;;;9.80;;
14704;SDS011;7442;50.840;3.396;2023-06-22T15:27:56;14.50;;;10.05;;
14704;SDS011;7442;50.840;3.396;2023-06-22T15:30:42;11.68;;;9.50;;
14704;SDS011;7442;50.840;3.396;2023-06-22T15:33:29;15.18;;;10.53;;
14704;SDS011;7442;50.840;3.396;2023-06-22T15:36:16;16.35;;;10.98;;
14704;SDS011;7442;50.840;3.396;2023-06-22T15:39:03;11.18;;;9.33;;
14704;SDS011;7442;50.840;3.396;2023-06-22T15:41:49;14.98;;;9.80;;
14704;SDS011;7442;50.840;3.396;2023-06-22T15:44:37;13.72;;;10.50;;
14704;SDS011;7442;50.840;3.396;2023-06-22T15:47:23;15.78;;;10.72;;
14704;SDS011;7442;50.840;3.396;2023-06-22T15:50:10;16.82;;;10.28;;
14704;SDS011;7442;50.840;3.396;2023-06-22T15:52:57;15.48;;;11.83;;
14704;SDS011;7442;50.840;3.396;2023-06-22T15:55:44;15.00;;;12.28;;
14704;SDS011;7442;50.840;3.396;2023-06-22T15:58:31;16.75;;;13.48;;
14704;SDS011;7442;50.840;3.396;2023-06-22T16:01:17;20.92;;;14.23;;
14704;SDS011;7442;50.840;3.396;2023-06-22T16:04:07;22.13;;;15.32;;
14704;SDS011;7442;50.840;3.396;2023-06-22T16:06:53;18.40;;;15.18;;
14704;SDS011;7442;50.840;3.396;2023-06-22T16:09:41;22.87;;;15.75;;
14704;SDS011;7442;50.840;3.396;2023-06-22T16:12:28;25.70;;;18.02;;
14704;SDS011;7442;50.840;3.396;2023-06-22T16:15:14;24.18;;;18.40;;
14704;SDS011;7442;50.840;3.396;2023-06-22T16:18:01;22.32;;;17.57;;
14704;SDS011;7442;50.840;3.396;2023-06-22T16:20:47;24.18;;;18.27;;
14704;SDS011;7442;50.840;3.396;2023-06-22T16:23:33;27.48;;;20.27;;
14704;SDS011;7442;50.840;3.396;2023-06-22T16:26:20;27.77;;;20.43;;
14704;SDS011;7442;50.840;3.396;2023-06-22T16:29:07;26.73;;;20.23;;
14704;SDS011;7442;50.840;3.396;2023-06-22T16:31:53;28.07;;;19.98;;
14704;SDS011;7442;50.840;3.396;2023-06-22T16:34:40;24.67;;;19.98;;
14704;SDS011;7442;50.840;3.396;2023-06-22T16:37:26;25.90;;;21.35;;
14704;SDS011;7442;50.840;3.396;2023-06-22T16:40:12;26.95;;;21.33;;
14704;SDS011;7442;50.840;3.396;2023-06-22T16:42:59;26.70;;;21.33;;
14704;SDS011;7442;50.840;3.396;2023-06-22T16:45:46;24.95;;;20.62;;
14704;SDS011;7442;50.840;3.396;2023-06-22T16:48:38;23.65;;;19.98;;
14704;SDS011;7442;50.840;3.396;2023-06-22T16:51:24;24.02;;;19.95;;